Scottsbluff, NE (69361)

5:16 PM MST on February 07, 2016 (GMT -0700)
Scottsbluff Main St Mrkt | | Change Station
CLOSE
Current Station
Personal Weather Station
Location: Scottsbluff, NE
Elevation: 3881 ft
Nearby Weather Stations

Elev 3881 ft 41.86 °N, 103.67 °W | Updated 4 minutes ago

Overcast
Overcast
32.7 °F
Feels Like 23 °F
N
13.0
Wind Variable Wind from WNW
Gusts 20.0 mph

Today
High -- | Low -- °F
--% Chance of Precip.
Yesterday
High -- | Low -- °F
Precip. -- in
Pressure 30.40 in
Visibility 10.0 miles
Clouds Overcast 8500 ft
Windchill 23 °F
Dew Point 17 °F
Humidity 53%
Rainfall 0.00 in
Snow Depth Not available.
7:01 AM 5:17 PM
Waning Crescent, 1% visible
METAR KBFF 072353Z AUTO 32018G26KT 10SM OVC085 00/M09 A3032 RMK AO2 PK WND 32029/2300 SLP294 T00001089 10017 20000 53012
Pressure 30.40 in
Visibility 10.0 miles
Clouds Overcast 8500 ft
Windchill 23 °F
Dew Point 17 °F
Humidity 53%
Rainfall 0.00 in
Snow Depth Not available.
7:01 AM 5:17 PM
Waning Crescent, 1% visible
METAR KBFF 072353Z AUTO 32018G26KT 10SM OVC085 00/M09 A3032 RMK AO2 PK WND 32029/2300 SLP294 T00001089 10017 20000 53012

10-Day Weather Forecast

Almanac

Astronomy

Feb. 07, 2016 Rise Set
Actual Time
Civil Twilight
Nautical Twilight
Astronomical Twilight
Moon
Length of Visible Light
Length of Day
Tomorrow will be .
, % of the Moon is Illuminated

Today's Extremes

State Highs State Lows

Community

WunderPhotos

Upload Photos

1,891,334 photos uploaded!

WunderBlog® & News

Nearby

Air Quality

  Air Quality AQ Index Pollutant
Not available.

Snow Depth

Station Depth Elevation

Earthquake Activity

City Distance Mag. Time & Date
Minimum magnitude displayed is 2.5.

Coastal Water Temperatures

Place Temperature

Stations

Nearby Weather Stations

Station Location Temp. Windchill Dew Point Humidity Wind Precip. Elev Updated Type
                   

Watches & Warnings

There are currently no watches in effect.